Estes Park, Colorado
Current Conditions -  °F | °C
As of 2:53 PM on Thursday 23 Oct 2014 (Local Time) from KLMO Reporting Station
Clear Clear  
Wind Chill: 75°   Ceiling: Unl
Heat Index: 75°   Visibility: 10mi
Dew Point: 30°   Wind: 10mph
Humidity: 19%   Direction: 230°SW
Pressure: 30.1"   Gusts: NA
Location:  40.37°N, 105.52°W
Report Text: KLMO 232053Z AUTO 23009KT 10SM CLR 24/M01 A3010 RMK AO2 T02381011
Loading
Personal Weather Stations






























Interactive Weather Map
Tropical Storm Tracking
New forecast layout! Learn more

10-Day Weather Forecast

Advertisements
Track Severe Weather on mobile